Time;durP1;ratioP1;P1;durP2;ratioP2;P2;SDS_P1;SDS_P2;PMS_P1;PMS_P2;Temp;Humidity;BMP_temperature;BMP_pressure;BME280_temperature;BME280_humidity;BME280_pressure;Samples;Min_cycle;Max_cycle;Signal;HPM_P1;HPM_P2
2023/03/23 00:00:15;;;;;;;5.90;4.33;;;19.40;56.50;;;;;;4963197;28;20864;-82
2023/03/23 00:02:43;;;;;;;5.50;4.00;;;19.40;56.50;;;;;;4957495;28;20458;-82
2023/03/23 00:05:11;;;;;;;4.33;3.90;;;19.40;56.50;;;;;;4957012;28;20464;-82
2023/03/23 00:07:44;;;;;;;6.70;4.20;;;19.40;56.60;;;;;;4955614;28;20476;-82
2023/03/23 00:10:12;;;;;;;6.87;4.00;;;19.40;56.60;;;;;;4964548;28;20463;-82
2023/03/23 00:12:41;;;;;;;6.17;4.20;;;19.40;56.60;;;;;;4955650;28;20471;-82
2023/03/23 00:15:12;;;;;;;7.93;4.00;;;19.40;56.70;;;;;;4964545;28;20458;-82
2023/03/23 00:17:39;;;;;;;7.17;4.47;;;19.40;56.70;;;;;;4961208;28;20494;-82
2023/03/23 00:20:11;;;;;;;5.60;4.17;;;19.40;56.60;;;;;;4984011;28;20480;-82
2023/03/23 00:22:38;;;;;;;4.23;3.83;;;19.40;56.70;;;;;;4957589;28;20513;-83
2023/03/23 00:25:06;;;;;;;5.30;3.60;;;19.40;56.60;;;;;;4951338;28;20471;-81
2023/03/23 00:27:33;;;;;;;5.27;3.50;;;19.50;56.80;;;;;;4957542;28;20605;-82
2023/03/23 00:30:00;;;;;;;5.00;3.83;;;19.50;56.70;;;;;;4962012;28;20467;-82
2023/03/23 00:32:30;;;;;;;6.17;3.90;;;19.50;56.80;;;;;;4960438;28;20462;-83
2023/03/23 00:34:58;;;;;;;4.40;3.70;;;19.40;56.70;;;;;;4967900;28;20473;-82
2023/03/23 00:37:27;;;;;;;4.07;3.67;;;19.50;56.80;;;;;;4964587;28;20482;-83
2023/03/23 00:39:57;;;;;;;6.10;3.80;;;19.50;56.80;;;;;;4960871;28;20459;-83
2023/03/23 00:42:24;;;;;;;5.03;3.97;;;19.50;56.80;;;;;;4967514;28;20541;-82
2023/03/23 00:44:53;;;;;;;6.20;3.93;;;19.40;56.80;;;;;;4964501;28;20482;-82
2023/03/23 00:47:20;;;;;;;6.03;3.80;;;19.40;56.80;;;;;;4965152;29;20455;-83
2023/03/23 00:49:47;;;;;;;4.70;3.83;;;19.40;57.00;;;;;;4964542;28;20455;-82
2023/03/23 00:52:14;;;;;;;3.83;3.40;;;19.40;56.90;;;;;;4962928;28;20452;-82
2023/03/23 00:54:43;;;;;;;4.00;3.60;;;19.50;57.10;;;;;;4963462;28;20455;-82
2023/03/23 00:57:10;;;;;;;5.43;3.77;;;19.50;56.80;;;;;;4956660;28;20508;-82
2023/03/23 00:59:37;;;;;;;5.10;3.90;;;19.50;56.80;;;;;;4955949;28;20451;-82
2023/03/23 01:02:04;;;;;;;4.10;3.70;;;19.40;56.80;;;;;;4961398;28;20456;-82
2023/03/23 01:04:36;;;;;;;4.97;3.43;;;19.50;57.00;;;;;;4963070;28;20483;-82
2023/03/23 01:07:04;;;;;;;5.57;4.00;;;19.50;56.90;;;;;;4961472;28;20483;-82
2023/03/23 01:09:31;;;;;;;5.67;3.67;;;19.40;57.00;;;;;;4958842;28;20524;-82
2023/03/23 01:12:00;;;;;;;5.07;3.67;;;19.40;57.00;;;;;;4952590;28;20456;-82
2023/03/23 01:14:27;;;;;;;4.33;3.57;;;19.50;56.90;;;;;;4968755;28;20455;-82
2023/03/23 01:16:54;;;;;;;4.73;3.50;;;19.40;57.00;;;;;;4965878;28;20559;-83
2023/03/23 01:19:21;;;;;;;3.83;3.50;;;19.40;57.00;;;;;;4969682;28;20459;-83
2023/03/23 01:21:48;;;;;;;4.80;3.50;;;19.40;57.00;;;;;;4976474;28;20465;-83
2023/03/23 01:24:16;;;;;;;6.70;3.43;;;19.50;57.20;;;;;;4963795;28;20526;-83
2023/03/23 01:26:42;;;;;;;4.00;3.50;;;19.40;57.00;;;;;;4954649;28;20474;-84
2023/03/23 01:29:11;;;;;;;7.40;5.17;;;19.40;57.10;;;;;;4974948;28;20454;-84
2023/03/23 01:31:38;;;;;;;10.23;5.43;;;19.50;57.20;;;;;;4974273;28;20550;-83
2023/03/23 01:34:05;;;;;;;8.20;5.37;;;19.50;57.20;;;;;;4973481;28;20459;-83
2023/03/23 01:36:33;;;;;;;7.17;5.03;;;19.40;57.10;;;;;;4959328;28;20480;-83
2023/03/23 01:39:02;;;;;;;7.97;5.63;;;19.50;57.00;;;;;;4974355;28;20549;-83
2023/03/23 01:41:29;;;;;;;7.60;5.60;;;19.40;57.00;;;;;;4963287;28;20517;-84
2023/03/23 01:44:03;;;;;;;9.27;6.87;;;19.50;57.20;;;;;;4961472;28;20479;-83
2023/03/23 01:46:32;;;;;;;9.00;6.23;;;19.50;57.10;;;;;;4956046;28;20504;-83
2023/03/23 01:49:01;;;;;;;9.27;5.83;;;19.40;57.10;;;;;;4951459;28;20455;-83
2023/03/23 01:51:28;;;;;;;9.17;5.80;;;19.40;57.20;;;;;;4968244;28;20538;-83
2023/03/23 01:53:56;;;;;;;10.20;5.80;;;19.40;57.10;;;;;;4956971;28;20498;-83
2023/03/23 01:56:29;;;;;;;8.53;5.23;;;19.40;57.10;;;;;;4961894;28;20475;-83
2023/03/23 01:58:56;;;;;;;9.10;5.40;;;19.50;57.20;;;;;;4957156;28;20490;-83
2023/03/23 02:01:24;;;;;;;8.77;5.63;;;19.40;57.10;;;;;;4953208;28;20455;-82
2023/03/23 02:03:53;;;;;;;7.70;5.63;;;19.50;57.20;;;;;;4962670;28;20500;-83
2023/03/23 02:06:21;;;;;;;8.57;5.53;;;19.50;57.20;;;;;;4959364;28;20568;-83
2023/03/23 02:08:48;;;;;;;7.37;5.03;;;19.40;57.10;;;;;;4965865;28;20459;-83
2023/03/23 02:11:15;;;;;;;7.20;5.47;;;19.50;57.20;;;;;;4968024;28;20455;-83
2023/03/23 02:13:42;;;;;;;9.00;5.10;;;19.40;57.20;;;;;;4964304;28;20453;-83
2023/03/23 02:16:11;;;;;;;5.90;5.13;;;19.40;57.20;;;;;;4973316;28;20462;-83
2023/03/23 02:18:48;;;;;;;7.90;5.07;;;19.40;57.40;;;;;;4973909;28;20446;-82
2023/03/23 02:22:00;;;;;;;6.50;4.87;;;19.50;57.30;;;;;;4964263;28;20459;-83
2023/03/23 02:24:52;;;;;;;7.87;5.33;;;19.40;57.10;;;;;;4962687;28;20518;-83
2023/03/23 02:27:26;;;;;;;5.43;4.93;;;19.40;57.30;;;;;;4966886;28;20481;-82
2023/03/23 02:30:09;;;;;;;5.70;5.10;;;19.40;57.30;;;;;;4972768;28;20543;-83
2023/03/23 02:33:10;;;;;;;7.83;5.30;;;19.40;57.30;;;;;;4975162;28;20468;-84
2023/03/23 02:35:38;;;;;;;7.00;4.80;;;19.40;57.10;;;;;;4972743;28;20518;-82
2023/03/23 02:38:07;;;;;;;6.70;4.37;;;19.40;57.10;;;;;;4962880;28;20472;-83
2023/03/23 02:40:36;;;;;;;7.43;4.80;;;19.40;57.40;;;;;;4957140;28;20456;-82
2023/03/23 02:43:03;;;;;;;5.10;4.53;;;19.40;57.30;;;;;;4975781;28;20428;-86
2023/03/23 02:45:30;;;;;;;5.30;4.33;;;19.40;57.10;;;;;;4974250;28;20485;-83
2023/03/23 02:47:57;;;;;;;7.00;4.43;;;19.40;57.30;;;;;;4957681;28;20557;-82
2023/03/23 02:50:26;;;;;;;5.20;4.00;;;19.50;57.30;;;;;;4950353;28;20471;-83
2023/03/23 02:52:53;;;;;;;5.93;3.90;;;19.40;57.10;;;;;;4961065;28;20486;-84
2023/03/23 02:55:22;;;;;;;6.20;4.47;;;19.40;57.20;;;;;;4970670;28;20458;-84
2023/03/23 02:57:50;;;;;;;4.17;3.77;;;19.40;57.20;;;;;;4955637;28;20475;-83
2023/03/23 03:00:17;;;;;;;5.30;4.50;;;19.40;57.10;;;;;;4972825;28;20469;-82
2023/03/23 03:02:46;;;;;;;5.53;3.93;;;19.40;57.20;;;;;;4968148;28;20455;-82
2023/03/23 03:05:18;;;;;;;5.57;4.10;;;19.40;57.40;;;;;;4964759;28;20569;-83
2023/03/23 03:07:59;;;;;;;4.10;3.53;;;19.40;57.30;;;;;;4970648;28;20479;-83
2023/03/23 03:10:27;;;;;;;5.50;4.27;;;19.40;57.20;;;;;;4955264;28;20455;-83
2023/03/23 03:12:57;;;;;;;6.40;4.20;;;19.40;57.30;;;;;;4970427;28;20459;-84
2023/03/23 03:15:27;;;;;;;5.23;4.10;;;19.40;57.40;;;;;;4964252;28;20462;-84
2023/03/23 03:17:59;;;;;;;5.27;3.67;;;19.40;57.20;;;;;;4971893;28;20477;-83
2023/03/23 03:20:27;;;;;;;6.97;3.93;;;19.40;57.30;;;;;;4965636;28;20487;-83
2023/03/23 03:22:56;;;;;;;3.80;3.50;;;19.40;57.30;;;;;;4970012;28;20466;-83
2023/03/23 03:25:23;;;;;;;5.40;4.10;;;19.40;57.10;;;;;;4956175;28;20495;-83
2023/03/23 03:27:52;;;;;;;5.27;3.60;;;19.40;57.20;;;;;;4960157;28;20480;-83
2023/03/23 03:30:21;;;;;;;5.00;3.40;;;19.40;57.30;;;;;;4951285;28;20562;-82
2023/03/23 03:32:50;;;;;;;3.80;3.40;;;19.40;57.30;;;;;;4977330;28;20474;-82
2023/03/23 03:35:18;;;;;;;4.07;3.57;;;19.40;57.40;;;;;;4954542;28;20475;-82
2023/03/23 03:37:46;;;;;;;4.00;3.57;;;19.40;57.10;;;;;;4954178;28;20482;-82
2023/03/23 03:40:16;;;;;;;4.33;3.40;;;19.40;57.30;;;;;;4943698;28;20462;-82
2023/03/23 03:42:44;;;;;;;3.77;3.47;;;19.30;57.10;;;;;;4958035;28;20519;-82
2023/03/23 03:45:12;;;;;;;5.27;3.30;;;19.30;57.30;;;;;;4960516;28;20475;-81
2023/03/23 03:47:40;;;;;;;4.07;3.57;;;19.40;57.20;;;;;;4953151;28;21075;-82
2023/03/23 03:50:08;;;;;;;3.43;3.13;;;19.40;57.40;;;;;;4962410;28;20999;-82
2023/03/23 03:52:35;;;;;;;7.13;3.40;;;19.30;57.10;;;;;;4965728;28;20462;-82
2023/03/23 03:55:02;;;;;;;3.47;3.17;;;19.30;57.20;;;;;;4944242;28;20500;-81
2023/03/23 03:57:30;;;;;;;3.73;3.40;;;19.30;57.30;;;;;;4958782;28;20475;-82
2023/03/23 03:59:57;;;;;;;3.50;3.20;;;19.30;57.20;;;;;;4960479;28;20450;-82
2023/03/23 04:02:24;;;;;;;5.83;3.27;;;19.40;57.40;;;;;;4954421;28;20463;-82
2023/03/23 04:04:52;;;;;;;4.73;3.50;;;19.30;57.20;;;;;;4966870;28;20490;-82
2023/03/23 04:07:19;;;;;;;5.80;3.73;;;19.30;57.30;;;;;;4966605;28;20471;-81
2023/03/23 04:09:47;;;;;;;3.60;3.20;;;19.30;57.40;;;;;;4957996;28;20454;-81
2023/03/23 04:12:14;;;;;;;4.57;3.20;;;19.40;57.30;;;;;;4975688;28;20483;-83
2023/03/23 04:14:42;;;;;;;4.00;3.00;;;19.30;57.20;;;;;;4972299;28;20458;-82
2023/03/23 04:17:10;;;;;;;3.57;2.80;;;19.30;57.30;;;;;;4967681;28;20475;-82
2023/03/23 04:19:37;;;;;;;4.70;3.53;;;19.40;57.30;;;;;;4966221;28;20829;-82
2023/03/23 04:22:04;;;;;;;3.00;2.80;;;19.30;57.10;;;;;;4968785;28;20471;-81
2023/03/23 04:24:33;;;;;;;7.60;3.10;;;19.30;57.10;;;;;;4956975;28;20472;-82
2023/03/23 04:27:01;;;;;;;3.93;3.10;;;19.30;57.10;;;;;;4968335;28;20541;-82
2023/03/23 04:29:28;;;;;;;5.43;3.57;;;19.30;57.00;;;;;;4964413;28;20455;-83
2023/03/23 04:31:56;;;;;;;4.33;3.50;;;19.30;57.20;;;;;;4968353;28;20507;-82
2023/03/23 04:34:23;;;;;;;3.27;3.03;;;19.30;57.10;;;;;;4953874;28;20468;-82
2023/03/23 04:36:51;;;;;;;5.23;3.37;;;19.30;57.20;;;;;;4953334;28;20539;-82
2023/03/23 04:39:18;;;;;;;3.00;2.80;;;19.30;57.30;;;;;;4949086;28;20463;-81
2023/03/23 04:41:46;;;;;;;4.00;3.60;;;19.30;57.20;;;;;;4955847;28;20463;-81
2023/03/23 04:44:17;;;;;;;3.40;3.10;;;19.30;57.30;;;;;;4954583;28;20501;-82
2023/03/23 04:46:45;;;;;;;4.63;3.37;;;19.30;57.10;;;;;;4963902;28;20479;-82
2023/03/23 04:49:21;;;;;;;3.73;3.10;;;19.30;57.20;;;;;;4969609;28;20489;-81
2023/03/23 04:51:50;;;;;;;5.37;3.47;;;19.30;57.20;;;;;;4966329;28;20497;-82
2023/03/23 04:54:17;;;;;;;3.40;3.10;;;19.30;57.30;;;;;;4959193;28;20459;-82
2023/03/23 04:56:44;;;;;;;3.80;3.50;;;19.30;57.10;;;;;;4965702;28;20471;-82
2023/03/23 04:59:12;;;;;;;3.50;3.10;;;19.30;57.20;;;;;;4958101;28;20466;-81
2023/03/23 05:01:45;;;;;;;4.13;3.17;;;19.30;57.20;;;;;;4962346;28;20475;-81
2023/03/23 05:04:16;;;;;;;5.17;3.20;;;19.30;57.30;;;;;;4964219;28;20461;-81
2023/03/23 05:06:45;;;;;;;4.33;3.10;;;19.30;57.20;;;;;;4951391;28;20482;-82
2023/03/23 05:09:12;;;;;;;5.10;3.57;;;19.30;57.20;;;;;;4950617;28;20514;-82
2023/03/23 05:11:39;;;;;;;4.70;3.37;;;19.30;57.20;;;;;;4964094;28;20523;-83
2023/03/23 05:14:06;;;;;;;2.97;2.67;;;19.30;57.20;;;;;;4953790;28;20463;-82
2023/03/23 05:16:36;;;;;;;6.27;3.40;;;19.30;57.20;;;;;;4956954;28;20588;-82
2023/03/23 05:19:04;;;;;;;3.37;3.07;;;19.30;57.20;;;;;;4957444;28;20515;-81
2023/03/23 05:21:32;;;;;;;2.93;2.63;;;19.30;57.20;;;;;;4953081;28;20845;-82
2023/03/23 05:24:00;;;;;;;3.93;2.80;;;19.30;57.10;;;;;;4963307;28;20458;-81
2023/03/23 05:26:28;;;;;;;3.40;3.10;;;19.30;57.20;;;;;;4954906;28;20550;-83
2023/03/23 05:28:55;;;;;;;5.30;3.30;;;19.30;57.10;;;;;;4966516;28;20451;-81
2023/03/23 05:31:24;;;;;;;5.13;2.97;;;19.20;57.10;;;;;;4964222;28;20470;-83
2023/03/23 05:33:56;;;;;;;2.97;2.53;;;19.30;57.10;;;;;;4974384;28;20469;-82
2023/03/23 05:36:23;;;;;;;3.87;3.10;;;19.30;57.10;;;;;;4961913;28;20517;-82
2023/03/23 05:38:53;;;;;;;2.90;2.70;;;19.30;57.10;;;;;;4965373;28;20458;-82
2023/03/23 05:41:20;;;;;;;3.10;2.70;;;19.30;57.10;;;;;;4958864;28;20458;-82
2023/03/23 05:43:47;;;;;;;2.70;2.50;;;19.30;57.00;;;;;;4966845;28;20454;-82
2023/03/23 05:46:14;;;;;;;3.23;2.93;;;19.30;57.00;;;;;;4965537;28;20490;-81
2023/03/23 05:48:41;;;;;;;3.53;2.77;;;19.20;57.10;;;;;;4964324;28;20459;-81
2023/03/23 05:51:08;;;;;;;3.17;2.87;;;19.30;57.10;;;;;;4969835;28;20462;-82
2023/03/23 05:53:35;;;;;;;3.50;2.93;;;19.30;57.10;;;;;;4962570;28;20452;-81
2023/03/23 05:56:04;;;;;;;4.10;3.50;;;19.30;57.00;;;;;;4963308;28;20451;-81
2023/03/23 05:58:31;;;;;;;3.37;2.50;;;19.20;56.90;;;;;;4961014;28;20429;-81
2023/03/23 06:00:58;;;;;;;3.20;2.90;;;19.20;57.20;;;;;;4967840;28;20442;-81
2023/03/23 06:03:25;;;;;;;3.50;3.10;;;19.30;57.00;;;;;;4966991;28;20523;-81
2023/03/23 06:05:52;;;;;;;6.97;2.73;;;19.30;57.00;;;;;;4971040;28;20466;-81
2023/03/23 06:08:19;;;;;;;3.80;3.03;;;19.30;57.10;;;;;;4958950;28;20467;-82
2023/03/23 06:10:46;;;;;;;3.90;2.63;;;19.30;57.00;;;;;;4961251;28;20456;-82
2023/03/23 06:13:15;;;;;;;2.97;2.67;;;19.40;56.90;;;;;;4959429;28;20766;-82
2023/03/23 06:15:42;;;;;;;4.50;2.70;;;19.30;56.80;;;;;;4956999;28;20442;-82
2023/03/23 06:18:09;;;;;;;3.00;2.60;;;19.30;56.80;;;;;;4957787;28;20467;-81
2023/03/23 06:20:36;;;;;;;3.13;2.70;;;19.30;56.80;;;;;;4956729;28;20823;-82
2023/03/23 06:23:04;;;;;;;2.90;2.67;;;19.30;56.90;;;;;;4954736;28;20459;-82
2023/03/23 06:25:31;;;;;;;2.97;2.73;;;19.30;57.00;;;;;;4959343;28;20506;-81
2023/03/23 06:27:58;;;;;;;3.90;3.03;;;19.30;56.90;;;;;;4960855;28;20474;-81
2023/03/23 06:30:28;;;;;;;4.13;2.90;;;19.30;56.80;;;;;;4949671;29;20458;-81
2023/03/23 06:32:56;;;;;;;3.03;2.77;;;19.30;57.10;;;;;;4968624;28;20543;-80
2023/03/23 06:35:23;;;;;;;4.07;2.70;;;19.30;56.90;;;;;;4964319;28;20467;-81
2023/03/23 06:37:51;;;;;;;3.20;2.90;;;19.30;56.90;;;;;;4967268;28;20533;-82
2023/03/23 06:40:19;;;;;;;4.67;2.93;;;19.30;57.00;;;;;;4975708;28;20454;-81
2023/03/23 06:42:46;;;;;;;4.60;2.50;;;19.30;57.00;;;;;;4957373;28;20539;-81
2023/03/23 06:45:13;;;;;;;2.90;2.67;;;19.30;57.00;;;;;;4972196;28;20477;-81
2023/03/23 06:47:41;;;;;;;5.50;2.90;;;19.30;56.90;;;;;;4953527;28;20482;-81
2023/03/23 06:50:10;;;;;;;2.90;2.60;;;19.30;57.10;;;;;;4969809;28;20486;-81
2023/03/23 06:52:37;;;;;;;4.13;2.93;;;19.30;57.00;;;;;;4968873;28;20463;-81
2023/03/23 06:55:04;;;;;;;2.90;2.70;;;19.30;57.10;;;;;;4963246;28;20459;-81
2023/03/23 06:57:31;;;;;;;2.73;2.37;;;19.30;57.00;;;;;;4952036;28;20470;-80
2023/03/23 06:59:58;;;;;;;3.90;2.70;;;19.30;57.00;;;;;;4968401;28;20476;-81
2023/03/23 07:02:25;;;;;;;3.37;2.30;;;19.30;56.80;;;;;;4965040;28;20529;-80
2023/03/23 07:04:54;;;;;;;2.80;2.20;;;19.30;57.00;;;;;;4952976;28;20461;-81
2023/03/23 07:07:21;;;;;;;3.10;2.83;;;19.30;56.90;;;;;;4952963;28;20475;-81
2023/03/23 07:09:48;;;;;;;2.70;2.50;;;19.30;56.90;;;;;;4965152;28;20450;-82
2023/03/23 07:12:16;;;;;;;3.60;2.60;;;19.40;56.90;;;;;;4959442;28;20445;-82
2023/03/23 07:14:43;;;;;;;2.60;2.40;;;19.30;56.80;;;;;;4952490;28;20486;-81
2023/03/23 07:17:10;;;;;;;2.77;2.30;;;19.30;56.90;;;;;;4955275;28;20554;-82
2023/03/23 07:19:37;;;;;;;2.90;2.70;;;19.30;56.90;;;;;;4959286;28;20987;-82
2023/03/23 07:22:06;;;;;;;2.87;2.67;;;19.30;56.90;;;;;;4959961;28;20447;-82
2023/03/23 07:24:33;;;;;;;2.70;2.50;;;19.40;56.90;;;;;;4956362;28;20454;-80
2023/03/23 07:27:00;;;;;;;3.57;2.60;;;19.50;57.00;;;;;;4956249;28;20474;-82
2023/03/23 07:29:27;;;;;;;3.20;2.67;;;19.40;56.80;;;;;;4959907;28;20474;-82
2023/03/23 07:31:55;;;;;;;3.00;2.70;;;19.40;56.70;;;;;;4957021;28;20460;-85
2023/03/23 07:34:22;;;;;;;2.40;2.20;;;19.40;56.70;;;;;;4958970;28;20526;-84
2023/03/23 07:37:10;;;;;;;4.03;2.60;;;19.40;56.80;;;;;;4956863;28;20487;-80
2023/03/23 07:39:38;;;;;;;2.40;2.30;;;19.50;56.80;;;;;;4955546;28;20949;-80
2023/03/23 07:42:07;;;;;;;2.37;2.17;;;19.60;56.70;;;;;;4953801;28;20482;-83
2023/03/23 07:44:34;;;;;;;3.83;2.50;;;19.70;56.50;;;;;;4958521;28;20447;-82
2023/03/23 07:47:01;;;;;;;3.60;2.37;;;19.70;56.30;;;;;;4956239;29;20479;-80
2023/03/23 07:49:30;;;;;;;5.53;2.23;;;19.70;57.00;;;;;;4952845;28;20440;-83
2023/03/23 07:52:04;;;;;;;4.73;2.00;;;18.30;58.70;;;;;;4959459;29;20433;-82
2023/03/23 07:54:51;;;;;;;7.00;2.60;;;17.30;61.70;;;;;;4967408;29;20504;-82
2023/03/23 07:57:18;;;;;;;4.80;2.03;;;16.20;66.30;;;;;;4974120;28;20538;-85
2023/03/23 07:59:46;;;;;;;5.33;2.57;;;15.90;68.40;;;;;;4970033;28;20546;-84
2023/03/23 08:02:13;;;;;;;7.57;2.70;;;15.70;69.80;;;;;;4970495;28;20458;-82
2023/03/23 08:04:47;;;;;;;6.73;3.20;;;15.30;72.10;;;;;;4972236;28;20447;-83
2023/03/23 08:07:16;;;;;;;16.60;2.70;;;15.30;74.20;;;;;;4969248;28;20479;-85
2023/03/23 08:09:44;;;;;;;4.87;2.60;;;15.30;76.40;;;;;;4965350;28;20443;-82
2023/03/23 08:12:11;;;;;;;9.13;3.00;;;15.00;76.80;;;;;;4970430;28;20478;-83
2023/03/23 08:14:39;;;;;;;7.70;3.20;;;14.70;79.60;;;;;;4968448;29;20467;-87
2023/03/23 08:17:06;;;;;;;10.77;3.00;;;14.40;80.90;;;;;;4969379;28;20554;-82
2023/03/23 08:19:36;;;;;;;10.20;3.20;;;14.20;84.70;;;;;;4970077;28;20427;-82
2023/03/23 08:22:04;;;;;;;12.70;3.43;;;14.30;85.80;;;;;;4966714;28;20443;-80
2023/03/23 08:24:37;;;;;;;12.03;3.43;;;14.50;84.50;;;;;;4969940;28;20430;-86
2023/03/23 08:27:06;;;;;;;10.53;2.60;;;14.50;84.90;;;;;;4964756;28;20483;-82
2023/03/23 08:29:33;;;;;;;12.73;2.73;;;14.40;86.20;;;;;;4967251;28;20530;-81
2023/03/23 08:32:03;;;;;;;14.30;3.20;;;14.40;88.20;;;;;;4970444;29;20454;-83
2023/03/23 08:34:30;;;;;;;13.27;3.63;;;14.50;87.70;;;;;;4968805;28;20483;-82
2023/03/23 08:36:58;;;;;;;6.80;2.93;;;14.30;88.30;;;;;;4975005;28;20498;-86
2023/03/23 08:39:25;;;;;;;9.57;2.37;;;15.20;92.40;;;;;;4957587;29;20440;-86
2023/03/23 08:41:52;;;;;;;9.47;2.30;;;16.10;90.20;;;;;;4956276;28;20447;-86
2023/03/23 08:44:20;;;;;;;12.83;3.13;;;16.90;84.70;;;;;;4956143;28;20452;-86
2023/03/23 08:46:47;;;;;;;9.30;2.50;;;17.50;79.70;;;;;;4955959;29;20534;-86
2023/03/23 08:49:14;;;;;;;11.63;2.67;;;17.90;76.30;;;;;;4958156;28;20447;-84
2023/03/23 08:51:41;;;;;;;5.40;2.27;;;18.30;73.60;;;;;;4955070;29;20530;-85
2023/03/23 08:54:08;;;;;;;9.00;2.40;;;18.70;71.40;;;;;;4959112;29;20439;-84
2023/03/23 08:56:36;;;;;;;8.33;2.60;;;19.00;69.40;;;;;;4953589;28;20459;-85
2023/03/23 08:59:03;;;;;;;9.10;2.53;;;19.30;67.80;;;;;;4957509;29;20491;-85
2023/03/23 09:01:31;;;;;;;9.00;2.43;;;19.40;66.60;;;;;;4953437;28;20457;-85
2023/03/23 09:03:59;;;;;;;10.20;2.37;;;19.60;65.50;;;;;;4956380;29;20435;-85
2023/03/23 09:06:27;;;;;;;7.13;1.90;;;19.80;64.70;;;;;;4956269;28;21020;-84
2023/03/23 09:08:55;;;;;;;8.90;2.23;;;19.90;63.80;;;;;;4953308;28;20503;-85
2023/03/23 09:11:22;;;;;;;12.43;2.50;;;20.10;63.30;;;;;;4956536;29;20440;-85
2023/03/23 09:13:50;;;;;;;5.17;2.37;;;20.20;62.40;;;;;;4952272;28;20447;-85
2023/03/23 09:16:17;;;;;;;6.63;2.30;;;20.30;61.90;;;;;;4954527;29;20489;-85
2023/03/23 09:18:46;;;;;;;4.53;2.20;;;20.30;61.60;;;;;;4953196;29;20443;-86
2023/03/23 09:21:13;;;;;;;6.27;2.07;;;20.40;61.40;;;;;;4955103;29;20451;-85
2023/03/23 09:23:50;;;;;;;4.40;1.70;;;20.60;61.10;;;;;;4953892;28;20482;-85
2023/03/23 09:26:20;;;;;;;5.47;1.97;;;20.70;60.60;;;;;;4956827;28;20492;-85
2023/03/23 09:28:47;;;;;;;6.27;2.00;;;20.70;60.20;;;;;;4956724;28;20561;-85
2023/03/23 09:31:14;;;;;;;5.17;2.23;;;20.80;60.00;;;;;;4951620;29;20444;-84
2023/03/23 09:33:41;;;;;;;5.03;2.20;;;20.80;59.80;;;;;;4959625;29;20446;-85
2023/03/23 09:36:12;;;;;;;5.40;1.90;;;20.70;59.70;;;;;;4957701;28;20518;-84
2023/03/23 09:38:41;;;;;;;6.30;1.93;;;20.70;59.60;;;;;;4945907;28;20414;-85
2023/03/23 09:41:15;;;;;;;3.33;1.80;;;20.70;59.40;;;;;;4958373;29;20450;-85
2023/03/23 09:43:53;;;;;;;5.00;1.97;;;20.80;59.50;;;;;;4967975;28;20447;-85
2023/03/23 09:46:31;;;;;;;4.90;1.70;;;20.80;59.40;;;;;;4967002;28;20482;-85
2023/03/23 09:48:59;;;;;;;6.20;2.40;;;20.80;59.20;;;;;;4968233;28;20410;-84
2023/03/23 09:51:38;;;;;;;3.27;1.80;;;20.90;59.10;;;;;;4967041;29;20451;-84
2023/03/23 09:54:07;;;;;;;5.10;1.93;;;21.00;59.10;;;;;;4961831;28;20461;-84
2023/03/23 09:56:35;;;;;;;4.57;2.07;;;21.00;58.90;;;;;;4966628;28;20463;-86
2023/03/23 09:59:05;;;;;;;5.63;1.83;;;21.00;58.80;;;;;;4967169;28;20514;-86
2023/03/23 10:01:36;;;;;;;4.70;2.30;;;21.00;58.70;;;;;;4978637;28;20450;-85
2023/03/23 10:04:06;;;;;;;5.43;2.37;;;21.00;58.80;;;;;;4967527;28;20451;-84
2023/03/23 10:06:36;;;;;;;3.90;1.80;;;21.00;58.60;;;;;;4982757;28;20479;-84
2023/03/23 10:09:05;;;;;;;3.03;1.80;;;21.00;58.60;;;;;;4967282;28;20502;-84
2023/03/23 10:11:39;;;;;;;5.00;1.90;;;21.10;58.70;;;;;;4967284;28;20463;-84
2023/03/23 10:14:21;;;;;;;5.17;2.20;;;21.10;58.50;;;;;;4965600;28;20459;-85
2023/03/23 10:16:53;;;;;;;4.20;2.00;;;21.10;58.40;;;;;;4982105;28;20534;-84
2023/03/23 10:19:24;;;;;;;3.70;1.47;;;21.10;58.40;;;;;;4966844;28;20466;-82
2023/03/23 10:21:53;;;;;;;7.53;2.17;;;21.10;58.40;;;;;;4966143;28;20487;-85
2023/03/23 10:24:24;;;;;;;1.67;1.40;;;21.10;58.40;;;;;;4966140;28;20877;-86
2023/03/23 10:26:56;;;;;;;4.93;2.63;;;21.10;58.40;;;;;;4965197;28;20514;-86
2023/03/23 10:29:26;;;;;;;4.07;2.00;;;21.20;58.40;;;;;;4963364;28;20506;-85
2023/03/23 10:31:54;;;;;;;4.60;2.20;;;21.20;58.20;;;;;;4965040;28;20995;-85
2023/03/23 10:34:36;;;;;;;3.67;1.90;;;21.10;58.00;;;;;;4963404;28;20470;-82
2023/03/23 10:37:10;;;;;;;7.03;1.97;;;21.10;58.10;;;;;;4969343;29;20486;-84
2023/03/23 10:39:43;;;;;;;3.47;2.10;;;21.10;58.10;;;;;;4969728;28;20450;-83
2023/03/23 10:42:09;;;;;;;3.83;1.90;;;21.00;58.20;;;;;;4968558;29;20506;-83
2023/03/23 10:44:37;;;;;;;12.00;2.33;;;21.10;58.40;;;;;;4959079;28;20488;-84
2023/03/23 10:47:06;;;;;;;3.60;1.97;;;21.10;58.40;;;;;;4969719;28;20486;-84
2023/03/23 10:49:36;;;;;;;6.10;2.30;;;21.30;58.20;;;;;;4969681;29;20454;-84
2023/03/23 10:52:10;;;;;;;4.77;2.20;;;21.40;58.20;;;;;;4969702;28;20451;-85
2023/03/23 10:54:39;;;;;;;5.87;2.00;;;21.40;57.90;;;;;;4968824;28;20439;-84
2023/03/23 10:57:14;;;;;;;5.50;2.07;;;21.30;57.80;;;;;;4968750;28;20490;-82
2023/03/23 10:59:41;;;;;;;5.57;1.90;;;21.30;57.70;;;;;;4970004;28;20446;-85
2023/03/23 11:02:14;;;;;;;5.80;1.90;;;21.30;58.10;;;;;;4968339;28;20465;-85
2023/03/23 11:04:46;;;;;;;5.37;2.27;;;21.40;58.00;;;;;;4968931;28;20443;-84
2023/03/23 11:07:21;;;;;;;6.17;2.30;;;21.50;57.80;;;;;;4962432;28;20571;-84
2023/03/23 11:09:55;;;;;;;6.60;2.43;;;21.60;57.70;;;;;;4967745;28;20449;-83
2023/03/23 11:12:23;;;;;;;4.17;2.00;;;21.70;57.80;;;;;;4966215;28;20482;-85
2023/03/23 11:14:51;;;;;;;5.20;1.90;;;21.80;57.60;;;;;;4969362;28;20447;-85
2023/03/23 11:17:24;;;;;;;4.93;2.30;;;22.00;57.90;;;;;;4967781;28;20475;-86
2023/03/23 11:19:52;;;;;;;4.73;2.10;;;22.70;58.60;;;;;;4968446;28;20455;-85
2023/03/23 11:22:24;;;;;;;4.67;2.20;;;23.30;57.60;;;;;;4968937;28;20432;-84
2023/03/23 11:24:53;;;;;;;5.60;2.13;;;23.80;57.40;;;;;;4968585;28;20443;-84
2023/03/23 11:27:22;;;;;;;4.60;2.20;;;25.30;57.50;;;;;;4966117;28;20486;-86
2023/03/23 11:29:52;;;;;;;6.20;2.40;;;26.30;52.90;;;;;;4963382;29;20447;-85
2023/03/23 11:32:19;;;;;;;4.13;2.10;;;27.50;51.90;;;;;;4963336;28;20489;-85
2023/03/23 11:34:47;;;;;;;2.30;1.83;;;28.30;50.40;;;;;;4959837;28;20538;-85
2023/03/23 11:37:36;;;;;;;2.60;2.17;;;28.00;48.40;;;;;;4960058;29;20468;-85
2023/03/23 11:40:16;;;;;;;3.67;2.27;;;27.40;48.30;;;;;;4966106;28;20478;-86
2023/03/23 11:42:53;;;;;;;2.50;1.97;;;26.80;49.20;;;;;;4965065;29;20427;-85
2023/03/23 11:45:27;;;;;;;3.70;1.90;;;26.90;51.40;;;;;;4965063;28;20428;-85
2023/03/23 11:47:59;;;;;;;6.13;2.40;;;27.30;48.50;;;;;;4969064;28;20471;-84
2023/03/23 11:50:27;;;;;;;4.60;1.70;;;27.20;49.50;;;;;;4979043;28;20493;-83
2023/03/23 11:53:01;;;;;;;3.07;1.70;;;27.90;51.40;;;;;;4963175;28;20526;-85
2023/03/23 11:55:56;;;;;;;2.17;1.87;;;29.80;49.30;;;;;;4961666;28;20514;-85
2023/03/23 11:58:32;;;;;;;2.70;1.80;;;31.90;45.50;;;;;;4962437;28;20439;-85
2023/03/23 12:01:38;;;;;;;1.87;1.60;;;33.40;43.40;;;;;;4966146;28;20413;-83
2023/03/23 12:04:32;;;;;;;1.90;1.50;;;35.10;40.20;;;;;;4965571;28;20428;-83
2023/03/23 12:07:07;;;;;;;3.13;1.53;;;36.30;37.40;;;;;;4965117;28;20475;-84
2023/03/23 12:09:43;;;;;;;1.80;1.57;;;37.40;36.10;;;;;;4950402;28;20473;-84
2023/03/23 12:12:18;;;;;;;1.20;1.20;;;38.20;33.90;;;;;;4960645;29;20444;-84
2023/03/23 12:14:51;;;;;;;2.27;1.50;;;37.00;32.60;;;;;;4971417;28;20466;-85
2023/03/23 12:17:24;;;;;;;2.83;1.70;;;35.20;34.40;;;;;;4979441;28;20471;-83
2023/03/23 12:19:57;;;;;;;1.93;1.30;;;34.60;35.20;;;;;;4964160;29;20443;-82
2023/03/23 12:22:36;;;;;;;2.77;1.40;;;33.20;36.90;;;;;;4973263;28;20452;-83
2023/03/23 12:25:14;;;;;;;3.17;1.40;;;32.00;38.50;;;;;;4956919;28;20447;-82
2023/03/23 12:27:46;;;;;;;4.97;2.13;;;31.20;40.80;;;;;;4955829;29;20552;-81
2023/03/23 12:30:20;;;;;;;2.60;1.70;;;30.70;40.70;;;;;;4964734;29;20980;-80
2023/03/23 12:32:54;;;;;;;2.87;1.80;;;30.30;41.50;;;;;;4967096;29;20420;-82
2023/03/23 12:35:36;;;;;;;2.57;1.80;;;29.50;42.30;;;;;;4968777;28;20458;-84
2023/03/23 12:38:24;;;;;;;2.90;2.13;;;28.80;43.60;;;;;;4977730;28;20451;-83
2023/03/23 12:41:09;;;;;;;2.40;1.43;;;28.70;47.10;;;;;;4973810;28;20446;-83
2023/03/23 12:43:39;;;;;;;1.63;1.40;;;31.00;43.60;;;;;;4947925;29;20459;-82
2023/03/23 12:46:23;;;;;;;1.73;1.40;;;31.70;44.30;;;;;;4961723;29;20478;-82
2023/03/23 12:48:53;;;;;;;2.80;1.63;;;33.70;40.00;;;;;;4964356;29;20471;-84
2023/03/23 12:51:23;;;;;;;3.77;1.97;;;35.10;39.30;;;;;;4961475;28;20506;-82
2023/03/23 12:53:57;;;;;;;3.37;1.87;;;34.70;35.90;;;;;;4960281;29;20475;-81
2023/03/23 12:56:30;;;;;;;1.93;1.73;;;35.30;37.00;;;;;;4959994;29;20482;-82
2023/03/23 12:59:02;;;;;;;2.20;1.50;;;35.90;35.40;;;;;;4954813;28;20451;-82